Portada
METAR-TAF:

METAR-TAF

Aeroports :

Moscou-Vnukovo, Rússia

latitud: 55-39N, longitud: 037-16E, altitud: 203 m

Observació

L'informe es va fer fa 26 minuts, a les 21:30 UTC
Vent 10 kt del Nord-Oest
Temperatura 16°C
Humitat 68%
Pressió 1023 hPa
Visibilitat 10 km o més
sense núvols per sota de 1500 mi sense presència de cumulonimbus.

METAR: UUWW 242130Z 31005MPS CAVOK 16/10 Q1023 R24/000070 NOSIG

Hora: 00:56 (21:56 UTC)

Pronòstic

L'informe es va fer fa 2 hores i 6 minuts, a les 19:50 UTC
Pronòstic vàlid del 24 a les 21 UTC al 25 a les 21 UTC
Vent 6 kt del Oest/Nord-Oest
Visibilitat 10 km o més
Núvols disperses a una alçada de 3000 ft
Evolucionant progressivament
l' 25 a les 07 UTC al 25 a les 09 UTC
Vent 10 kt del Nord amb ràfegues de 21 kt

TAF: UUWW 241950Z 2421/2521 30003MPS 9999 SCT030 TX21/2512Z TN10/2503Z BECMG 2507/2509 36005G11MPS

Observacions i pronòstics meteorològics de més de 4000 aeroports (METAR i TAF).

Les estacions disponibles són els punts grocs i vermells al mapa.

Posi el ratolí al punt desitjat per veure el nom de l'estació.

Feu clic per veure les observacions i els pronòstics meteorològics.

Per canviar el mapa: feu clic els botons verds amb una creu de color negre per apropar; al botó verd amb un guió per allunyar la imatge; o en les fletxes verdes per a mapes adjacents.


METAR-TAF: